createdAt,value
2022-10-11T00:01:35.287Z,101501.94
2022-10-11T00:04:01.870Z,101502.66
2022-10-11T00:06:28.346Z,101498.97
2022-10-11T00:08:54.856Z,101503.22
2022-10-11T00:11:21.394Z,101505.69
2022-10-11T00:13:47.879Z,101506.31
2022-10-11T00:16:15.527Z,101507.91
2022-10-11T00:18:42.540Z,101512.22
2022-10-11T00:21:12.126Z,101518.97
2022-10-11T00:23:38.818Z,101527.59
2022-10-11T00:26:07.622Z,101520.50
2022-10-11T00:28:35.121Z,101525.56
2022-10-11T00:31:02.021Z,101528.88
2022-10-11T00:33:28.795Z,101528.88
2022-10-11T00:35:55.765Z,101534.06
2022-10-11T00:38:22.313Z,101532.13
2022-10-11T00:40:48.762Z,101536.38
2022-10-11T00:43:21.175Z,101538.84
2022-10-11T00:45:56.740Z,101538.78
2022-10-11T00:48:27.563Z,101542.94
2022-10-11T00:50:55.844Z,101537.59
2022-10-11T00:53:22.858Z,101535.78
2022-10-11T00:55:53.520Z,101540.00
2022-10-11T00:58:20.890Z,101538.16
2022-10-11T01:00:48.076Z,101545.91
2022-10-11T01:03:16.321Z,101554.28
2022-10-11T01:05:42.873Z,101556.00
2022-10-11T01:08:09.433Z,101558.47
2022-10-11T01:10:35.917Z,101555.72
2022-10-11T01:13:36.224Z,101563.47
2022-10-11T01:16:24.489Z,101559.88
2022-10-11T01:19:02.511Z,101561.53
2022-10-11T01:21:39.779Z,101575.34
2022-10-11T01:24:12.240Z,101574.38
2022-10-11T01:26:55.653Z,101581.28
2022-10-11T01:29:46.884Z,101584.63
2022-10-11T01:32:29.786Z,101587.09
2022-10-11T01:35:06.378Z,101579.13
2022-10-11T01:37:41.530Z,101583.38
2022-10-11T01:40:12.909Z,101581.53
2022-10-11T01:42:40.386Z,101585.75
2022-10-11T01:45:14.382Z,101585.63
2022-10-11T01:47:42.544Z,101591.56
2022-10-11T01:50:34.523Z,101596.59
2022-10-11T01:53:11.833Z,101598.22
2022-10-11T01:55:45.884Z,101599.72
2022-10-11T01:58:56.262Z,101596.09
2022-10-11T02:01:56.831Z,101592.41
2022-10-11T02:04:49.463Z,101592.25
2022-10-11T02:07:26.425Z,101602.50
2022-10-11T02:10:01.335Z,101605.78
2022-10-11T02:12:36.100Z,101603.81
2022-10-11T02:15:03.951Z,101610.66
2022-10-11T02:17:39.072Z,101614.06
2022-10-11T02:20:10.555Z,101619.13
2022-10-11T02:22:39.198Z,101620.69
2022-10-11T02:25:09.486Z,101618.78
2022-10-11T02:27:38.549Z,101626.44
2022-10-11T02:30:07.609Z,101627.19
2022-10-11T02:32:35.488Z,101630.50
2022-10-11T02:35:02.592Z,101630.38
2022-10-11T02:37:51.774Z,101629.22
2022-10-11T02:40:25.161Z,101631.66
2022-10-11T02:42:59.245Z,101633.31
2022-10-11T02:45:30.677Z,101622.66
2022-10-11T02:47:57.782Z,101632.16
2022-10-11T02:50:24.265Z,101629.41
2022-10-11T02:52:50.766Z,101638.81
2022-10-11T02:55:17.413Z,101633.47
2022-10-11T02:57:43.891Z,101637.72
2022-10-11T03:00:11.197Z,101638.44
2022-10-11T03:02:37.664Z,101639.16
2022-10-11T03:05:04.361Z,101645.06
2022-10-11T03:07:30.994Z,101651.88
2022-10-11T03:09:57.508Z,101650.84
2022-10-11T03:12:24.009Z,101655.06
2022-10-11T03:14:50.486Z,101656.59
2022-10-11T03:17:35.755Z,101659.91
2022-10-11T03:20:04.236Z,101660.50
2022-10-11T03:22:30.723Z,101662.00
2022-10-11T03:25:02.504Z,101674.81
2022-10-11T03:27:30.546Z,101684.22
2022-10-11T03:29:57.875Z,101684.13
2022-10-11T03:32:24.492Z,101677.97
2022-10-11T03:34:50.971Z,101688.19
2022-10-11T03:37:17.477Z,101688.88
2022-10-11T03:39:45.576Z,101689.69
2022-10-11T03:42:12.716Z,101688.72
2022-10-11T03:44:39.200Z,101683.38
2022-10-11T03:47:06.194Z,101687.69
2022-10-11T03:49:32.799Z,101694.41
2022-10-11T03:51:59.297Z,101689.94
2022-10-11T03:54:26.190Z,101701.00
2022-10-11T03:56:52.921Z,101700.84
2022-10-11T03:59:19.547Z,101700.69
2022-10-11T04:01:46.117Z,101704.19
2022-10-11T04:04:12.676Z,101703.13
2022-10-11T04:06:39.134Z,101710.97
2022-10-11T04:09:05.594Z,101708.31
2022-10-11T04:11:32.752Z,101712.59
2022-10-11T04:13:59.282Z,101711.69
2022-10-11T04:16:25.763Z,101718.47
2022-10-11T04:18:52.335Z,101717.50
2022-10-11T04:21:18.819Z,101723.66
2022-10-11T04:23:45.508Z,101727.06
2022-10-11T04:26:12.064Z,101733.84
2022-10-11T04:28:38.739Z,101732.06
2022-10-11T04:31:06.630Z,101728.50
2022-10-11T04:33:33.171Z,101724.94
2022-10-11T04:35:59.822Z,101726.47
2022-10-11T04:38:26.310Z,101737.53
2022-10-11T04:40:52.832Z,101736.56
2022-10-11T04:43:19.417Z,101739.94
2022-10-11T04:45:46.009Z,101741.56
2022-10-11T04:48:12.637Z,101747.53
2022-10-11T04:50:39.107Z,101746.53
2022-10-11T04:53:05.683Z,101748.25
2022-10-11T04:55:32.181Z,101748.16
2022-10-11T04:57:58.742Z,101753.34
2022-10-11T05:00:25.238Z,101751.44
2022-10-11T05:02:52.990Z,101756.63
2022-10-11T05:05:19.472Z,101765.28
2022-10-11T05:07:46.094Z,101763.41
2022-10-11T05:10:12.683Z,101766.72
2022-10-11T05:12:39.166Z,101770.13
2022-10-11T05:15:06.586Z,101776.09
2022-10-11T05:17:33.101Z,101776.03
2022-10-11T05:19:59.563Z,101777.72
2022-10-11T05:22:26.090Z,101775.94
2022-10-11T05:24:52.591Z,101772.47
2022-10-11T05:27:19.086Z,101776.66
2022-10-11T05:29:45.851Z,101781.72
2022-10-11T05:32:12.316Z,101786.00
2022-10-11T05:34:38.816Z,101789.50
2022-10-11T05:37:05.382Z,101797.25
2022-10-11T05:39:32.332Z,101804.13
2022-10-11T05:41:58.940Z,101810.19
2022-10-11T05:44:25.596Z,101813.69
2022-10-11T05:46:52.164Z,101812.78
2022-10-11T05:49:18.638Z,101811.00
2022-10-11T05:51:45.210Z,101816.19
2022-10-11T05:54:11.675Z,101820.47
2022-10-11T05:56:38.170Z,101828.16
2022-10-11T05:59:05.107Z,101826.47
2022-10-11T06:01:31.738Z,101835.91
2022-10-11T06:03:58.364Z,101835.13
2022-10-11T06:06:24.864Z,101839.50
2022-10-11T06:08:51.349Z,101836.91
2022-10-11T06:11:21.215Z,101847.34
2022-10-11T06:13:48.742Z,101851.75
2022-10-11T06:16:16.068Z,101855.22
2022-10-11T06:18:42.572Z,101850.22
2022-10-11T06:21:09.058Z,101853.00
2022-10-11T06:23:35.550Z,101856.66
2022-10-11T06:26:08.298Z,101862.81
2022-10-11T06:28:36.439Z,101861.41
2022-10-11T06:31:05.299Z,101869.47
2022-10-11T06:33:32.411Z,101874.91
2022-10-11T06:36:00.530Z,101868.25
2022-10-11T06:38:27.281Z,101873.78
2022-10-11T06:40:54.040Z,101877.53
2022-10-11T06:43:20.744Z,101874.22
2022-10-11T06:45:47.292Z,101876.34
2022-10-11T06:48:13.931Z,101878.44
2022-10-11T06:50:59.168Z,101872.69
2022-10-11T06:53:27.379Z,101875.72
2022-10-11T06:55:53.922Z,101876.97
2022-10-11T06:58:20.388Z,101878.22
2022-10-11T07:00:46.922Z,101882.94
2022-10-11T07:03:13.443Z,101890.25
2022-10-11T07:05:39.969Z,101893.28
2022-10-11T07:08:06.477Z,101883.25
2022-10-11T07:10:33.039Z,101895.72
2022-10-11T07:12:59.504Z,101887.56
2022-10-11T07:15:25.960Z,101898.28
2022-10-11T07:17:52.445Z,101897.00
2022-10-11T07:20:19.201Z,101903.41
2022-10-11T07:22:45.683Z,101905.56
2022-10-11T07:25:12.153Z,101905.78
2022-10-11T07:27:38.646Z,101915.63
2022-10-11T07:30:05.742Z,101912.63
2022-10-11T07:32:32.204Z,101919.09
2022-10-11T07:34:58.712Z,101922.00
2022-10-11T07:37:25.238Z,101924.03
2022-10-11T07:39:51.832Z,101918.19
2022-10-11T07:42:18.404Z,101940.44
2022-10-11T07:44:44.983Z,101931.97
2022-10-11T07:47:11.676Z,101934.06
2022-10-11T07:49:38.222Z,101934.47
2022-10-11T07:52:04.827Z,101934.88
2022-10-11T07:54:31.725Z,101936.00
2022-10-11T07:56:58.215Z,101933.63
2022-10-11T07:59:24.695Z,101943.47
2022-10-11T08:01:51.231Z,101939.38
2022-10-11T08:04:17.922Z,101942.19
2022-10-11T08:06:44.381Z,101949.38
2022-10-11T08:09:12.190Z,101951.38
2022-10-11T08:11:39.754Z,101944.84
2022-10-11T08:14:08.654Z,101948.34
2022-10-11T08:16:36.092Z,101955.34
2022-10-11T08:19:03.320Z,101949.38
2022-10-11T08:21:30.258Z,101951.31
2022-10-11T08:23:56.745Z,101956.84
2022-10-11T08:26:24.398Z,101960.69
2022-10-11T08:28:50.906Z,101955.66
2022-10-11T08:31:17.560Z,101959.38
2022-10-11T08:33:44.205Z,101964.84
2022-10-11T08:36:11.717Z,101959.81
2022-10-11T08:38:39.300Z,101967.06
2022-10-11T08:41:27.259Z,101966.38
2022-10-11T08:44:09.141Z,101969.22
2022-10-11T08:46:36.735Z,101973.75
2022-10-11T08:49:04.193Z,101964.38
2022-10-11T08:51:33.856Z,101962.78
2022-10-11T08:54:07.884Z,101964.75
2022-10-11T08:56:39.911Z,101971.88
2022-10-11T08:59:12.384Z,101970.38
2022-10-11T09:01:44.445Z,101966.03
2022-10-11T09:04:14.601Z,101968.13
2022-10-11T09:07:05.433Z,101964.91
2022-10-11T09:10:09.275Z,101971.25
2022-10-11T09:12:45.999Z,101968.09
2022-10-11T09:15:28.890Z,101963.94
2022-10-11T09:18:13.887Z,101973.59
2022-10-11T09:20:52.905Z,101974.69
2022-10-11T09:23:28.350Z,101968.78
2022-10-11T09:25:58.858Z,101972.56
2022-10-11T09:28:44.456Z,101970.03
2022-10-11T09:31:11.629Z,101969.22
2022-10-11T09:33:48.238Z,101970.22
2022-10-11T09:36:52.460Z,101965.91
2022-10-11T09:39:28.828Z,101971.41
2022-10-11T09:42:02.635Z,101968.88
2022-10-11T09:44:33.018Z,101965.63
2022-10-11T09:46:59.604Z,101973.75
2022-10-11T09:49:39.140Z,101970.44
2022-10-11T09:52:11.169Z,101979.22
2022-10-11T09:54:49.234Z,101974.28
2022-10-11T09:57:25.939Z,101976.41
2022-10-11T10:00:00.484Z,101977.59
2022-10-11T10:02:29.390Z,101977.00
2022-10-11T10:05:21.184Z,101971.31
2022-10-11T10:08:22.753Z,101978.53
2022-10-11T10:11:10.202Z,101979.84
2022-10-11T10:13:47.057Z,101977.56
2022-10-11T10:16:29.954Z,101979.53
2022-10-11T10:19:29.046Z,101984.28
2022-10-11T10:21:56.254Z,101979.19
2022-10-11T10:24:40.000Z,101979.47
2022-10-11T10:27:21.632Z,101984.53
2022-10-11T10:30:08.900Z,101988.88
2022-10-11T10:32:48.824Z,101983.03
2022-10-11T10:35:27.580Z,101984.91
2022-10-11T10:38:09.340Z,101984.25
2022-10-11T10:40:43.547Z,101991.19
2022-10-11T10:43:15.670Z,101987.91
2022-10-11T10:46:21.682Z,101988.34
2022-10-11T10:52:11.154Z,101986.31
2022-10-11T10:54:48.812Z,101993.47
2022-10-11T10:57:41.384Z,101984.59
2022-10-11T11:00:15.124Z,101982.88
2022-10-11T11:03:01.225Z,101981.25
2022-10-11T11:05:48.468Z,101983.84
2022-10-11T11:08:46.689Z,101977.66
2022-10-11T11:11:32.352Z,101987.34
2022-10-11T11:14:07.314Z,101980.53
2022-10-11T11:16:51.540Z,101989.38
2022-10-11T11:19:41.213Z,101995.25
2022-10-11T11:22:21.750Z,101981.34
2022-10-11T11:25:12.545Z,101980.63
2022-10-11T11:27:55.830Z,101976.47
2022-10-11T11:30:37.333Z,101975.59
2022-10-11T11:33:20.400Z,101978.28
2022-10-11T11:35:54.549Z,101976.63
2022-10-11T11:38:44.464Z,101970.47
2022-10-11T11:41:27.090Z,101962.19
2022-10-11T11:44:16.850Z,101963.34
2022-10-11T11:46:52.389Z,101961.81
2022-10-11T11:49:30.575Z,101968.22
2022-10-11T11:51:57.779Z,101963.84
2022-10-11T11:54:42.600Z,101969.06
2022-10-11T11:57:15.163Z,101967.28
2022-10-11T11:59:50.614Z,101965.50
2022-10-11T12:02:51.124Z,101965.84
2022-10-11T12:05:21.167Z,101969.53
2022-10-11T12:07:57.789Z,101960.19
2022-10-11T12:10:26.337Z,101968.28
2022-10-11T12:13:19.238Z,101952.88
2022-10-11T12:16:01.897Z,101958.44
2022-10-11T12:18:30.705Z,101961.94
2022-10-11T12:21:15.471Z,101953.41
2022-10-11T12:23:45.051Z,101957.94
2022-10-11T12:26:29.816Z,101955.34
2022-10-11T12:29:25.856Z,101956.44
2022-10-11T12:32:00.895Z,101954.75
2022-10-11T12:37:19.736Z,101953.25
2022-10-11T12:39:49.121Z,101959.44
2022-10-11T12:42:35.791Z,101958.66
2022-10-11T12:45:12.129Z,101950.75
2022-10-11T12:47:55.883Z,101948.88
2022-10-11T12:50:54.741Z,101954.16
2022-10-11T12:53:57.708Z,101948.75
2022-10-11T12:57:11.668Z,101949.56
2022-10-11T12:59:42.535Z,101949.91
2022-10-11T13:02:28.789Z,101948.44
2022-10-11T13:05:17.220Z,101954.50
2022-10-11T13:07:43.806Z,101944.88
2022-10-11T13:10:15.827Z,101947.50
2022-10-11T13:12:43.652Z,101949.44
2022-10-11T13:15:15.319Z,101954.50
2022-10-11T13:17:41.970Z,101941.41
2022-10-11T13:20:17.916Z,101949.28
2022-10-11T13:22:47.561Z,101949.28
2022-10-11T13:25:28.060Z,101950.22
2022-10-11T13:27:57.510Z,101948.44
2022-10-11T13:30:34.189Z,101950.16
2022-10-11T13:33:01.675Z,101946.75
2022-10-11T13:35:28.078Z,101952.81
2022-10-11T13:37:54.619Z,101952.00
2022-10-11T13:40:21.933Z,101953.75
2022-10-11T13:42:50.313Z,101950.25
2022-10-11T13:45:24.686Z,101945.88
2022-10-11T13:47:52.423Z,101938.13
2022-10-11T13:50:24.066Z,101947.75
2022-10-11T13:53:16.799Z,101939.75
2022-10-11T13:56:00.721Z,101942.38
2022-10-11T13:58:35.177Z,101938.63
2022-10-11T14:01:07.945Z,101936.19
2022-10-11T14:03:39.635Z,101942.97
2022-10-11T14:06:06.623Z,101939.50
2022-10-11T14:08:45.839Z,101935.97
2022-10-11T14:11:13.197Z,101937.88
2022-10-11T14:13:47.454Z,101932.63
2022-10-11T14:16:20.232Z,101942.13
2022-10-11T14:18:50.893Z,101929.84
2022-10-11T14:21:30.079Z,101940.28
2022-10-11T14:23:59.348Z,101937.63
2022-10-11T14:26:27.291Z,101939.34
2022-10-11T14:28:59.419Z,101935.06
2022-10-11T14:31:26.791Z,101935.84
2022-10-11T14:33:54.729Z,101938.50
2022-10-11T14:36:22.961Z,101934.19
2022-10-11T14:38:50.932Z,101935.00
2022-10-11T14:41:17.448Z,101935.75
2022-10-11T14:43:44.327Z,101937.53
2022-10-11T14:46:21.385Z,101930.53
2022-10-11T14:48:55.347Z,101932.19
2022-10-11T14:51:25.646Z,101935.75
2022-10-11T14:53:52.143Z,101928.69
2022-10-11T14:56:21.554Z,101927.91
2022-10-11T14:58:48.352Z,101932.28
2022-10-11T15:01:16.326Z,101937.53
2022-10-11T15:03:43.169Z,101938.38
2022-10-11T15:06:30.604Z,101931.41
2022-10-11T15:08:57.120Z,101929.72
2022-10-11T15:11:24.466Z,101936.63
2022-10-11T15:13:51.112Z,101929.69
2022-10-11T15:16:20.147Z,101940.09
2022-10-11T15:18:51.862Z,101937.41
2022-10-11T15:21:25.126Z,101937.38
2022-10-11T15:23:52.508Z,101937.28
2022-10-11T15:26:24.831Z,101939.78
2022-10-11T15:28:52.420Z,101936.34
2022-10-11T15:31:19.364Z,101931.06
2022-10-11T15:33:46.069Z,101931.84
2022-10-11T15:36:15.077Z,101939.63
2022-10-11T15:38:41.881Z,101944.75
2022-10-11T15:41:15.495Z,101936.72
2022-10-11T15:43:43.420Z,101939.34
2022-10-11T15:46:15.310Z,101941.00
2022-10-11T15:48:41.780Z,101944.34
2022-10-11T15:51:08.231Z,101944.19
2022-10-11T15:53:35.293Z,101941.38
2022-10-11T15:56:04.910Z,101948.28
2022-10-11T15:58:34.252Z,101949.88
2022-10-11T16:01:09.369Z,101944.47
2022-10-11T16:03:36.358Z,101946.00
2022-10-11T16:06:05.540Z,101949.31
2022-10-11T16:08:33.722Z,101943.00
2022-10-11T16:11:00.569Z,101945.41
2022-10-11T16:13:27.201Z,101946.13
2022-10-11T16:15:54.091Z,101947.63
2022-10-11T16:18:22.177Z,101950.06
2022-10-11T16:20:51.401Z,101946.31
2022-10-11T16:23:18.565Z,101955.69
2022-10-11T16:25:45.098Z,101952.03
2022-10-11T16:28:11.761Z,101952.69
2022-10-11T16:30:40.059Z,101958.56
2022-10-11T16:33:06.543Z,101957.44
2022-10-11T16:35:33.021Z,101962.34
2022-10-11T16:38:00.741Z,101964.63
2022-10-11T16:40:28.330Z,101973.03
2022-10-11T16:42:54.825Z,101968.28
2022-10-11T16:45:21.356Z,101974.97
2022-10-11T16:47:47.870Z,101979.78
2022-10-11T16:50:15.008Z,101972.50
2022-10-11T16:52:41.540Z,101972.22
2022-10-11T16:55:08.416Z,101977.13
2022-10-11T16:57:34.998Z,101979.44
2022-10-11T17:00:01.477Z,101983.50
2022-10-11T17:02:32.321Z,101984.84
2022-10-11T17:04:59.295Z,101987.19
2022-10-11T17:07:25.956Z,101979.06
2022-10-11T17:09:53.471Z,101983.13
2022-10-11T17:12:22.495Z,101983.72
2022-10-11T17:14:49.637Z,101988.66
2022-10-11T17:17:17.823Z,101983.16
2022-10-11T17:19:45.570Z,101981.97
2022-10-11T17:22:13.674Z,101991.31
2022-10-11T17:24:40.248Z,101993.66
2022-10-11T17:27:06.943Z,101997.78
2022-10-11T17:29:35.568Z,101994.03
2022-10-11T17:32:02.331Z,102000.75
2022-10-11T17:34:28.902Z,102006.56
2022-10-11T17:36:55.399Z,101999.25
2022-10-11T17:39:23.243Z,101996.25
2022-10-11T17:41:50.322Z,102002.94
2022-10-11T17:44:18.487Z,102000.88
2022-10-11T17:46:45.751Z,102002.31
2022-10-11T17:49:13.067Z,102003.66
2022-10-11T17:51:40.714Z,101999.03
2022-10-11T17:54:12.399Z,102000.44
2022-10-11T17:56:40.393Z,101998.41
2022-10-11T17:59:09.083Z,101993.78
2022-10-11T18:01:35.915Z,101996.25
2022-10-11T18:04:04.209Z,101994.31
2022-10-11T18:06:33.569Z,101982.91
2022-10-11T18:09:02.083Z,101987.97
2022-10-11T18:11:29.190Z,101991.22
2022-10-11T18:13:55.803Z,101986.78
2022-10-11T18:16:27.063Z,101985.69
2022-10-11T18:18:54.810Z,101995.94
2022-10-11T18:21:21.292Z,101989.63
2022-10-11T18:23:47.849Z,101991.25
2022-10-11T18:26:16.894Z,101991.88
2022-10-11T18:28:44.033Z,101982.22
2022-10-11T18:31:14.628Z,101987.28
2022-10-11T18:33:42.296Z,101994.09
2022-10-11T18:36:10.481Z,101991.22
2022-10-11T18:38:38.134Z,101990.25
2022-10-11T18:41:08.899Z,101983.19
2022-10-11T18:43:35.811Z,101988.25
2022-10-11T18:46:06.615Z,101985.50
2022-10-11T18:48:33.911Z,101987.81
2022-10-11T18:51:09.759Z,101988.47
2022-10-11T18:53:36.891Z,101986.53
2022-10-11T18:56:06.691Z,101984.56
2022-10-11T18:58:35.122Z,101987.81
2022-10-11T19:01:07.074Z,101979.78
2022-10-11T19:03:35.221Z,101983.78
2022-10-11T19:06:08.308Z,101981.75
2022-10-11T19:08:35.199Z,101974.47
2022-10-11T19:11:06.609Z,101972.41
2022-10-11T19:13:34.097Z,101981.66
2022-10-11T19:16:12.458Z,101983.19
2022-10-11T19:18:43.871Z,101978.59
2022-10-11T19:21:12.923Z,101983.63
2022-10-11T19:23:41.810Z,101979.91
2022-10-11T19:26:30.080Z,101989.09
2022-10-11T19:29:01.910Z,101986.34
2022-10-11T19:31:29.123Z,101984.41
2022-10-11T19:33:56.956Z,101985.00
2022-10-11T19:36:23.723Z,101983.06
2022-10-11T19:38:51.019Z,101984.69
2022-10-11T19:41:19.823Z,101980.03
2022-10-11T19:43:47.143Z,101978.94
2022-10-11T19:46:20.328Z,101989.88
2022-10-11T19:48:54.310Z,101990.53
2022-10-11T19:51:26.024Z,101986.81
2022-10-11T19:54:00.070Z,101990.88
2022-10-11T19:56:28.201Z,101990.69
2022-10-11T19:58:55.270Z,101988.72
2022-10-11T20:01:24.374Z,101992.09
2022-10-11T20:04:03.946Z,101992.75
2022-10-11T20:06:37.219Z,101995.25
2022-10-11T20:09:28.118Z,101996.84
2022-10-11T20:11:51.475Z,101995.88
2022-10-11T20:14:17.985Z,101995.78
2022-10-11T20:16:44.429Z,101996.38
2022-10-11T20:19:10.943Z,101997.19
2022-10-11T20:21:37.405Z,101988.44
2022-10-11T20:24:04.200Z,101993.44
2022-10-11T20:26:31.545Z,101994.16
2022-10-11T20:28:58.443Z,101995.78
2022-10-11T20:31:31.349Z,101992.88
2022-10-11T20:34:01.258Z,102000.50
2022-10-11T20:36:30.153Z,101989.13
2022-10-11T20:38:58.116Z,102002.81
2022-10-11T20:41:27.205Z,101989.66
2022-10-11T20:43:55.160Z,101987.59
2022-10-11T20:46:23.882Z,101987.41
2022-10-11T20:49:00.405Z,101998.28
2022-10-11T20:51:29.174Z,101993.72
2022-10-11T20:53:56.492Z,101999.50
2022-10-11T20:56:23.698Z,102000.22
2022-10-11T20:58:52.337Z,101996.50
2022-10-11T21:01:21.554Z,101997.22
2022-10-11T21:03:48.211Z,101983.13
2022-10-11T21:06:14.658Z,101992.56
2022-10-11T21:08:41.288Z,101989.69
2022-10-11T21:11:08.418Z,101993.88
2022-10-11T21:13:35.146Z,101991.09
2022-10-11T21:16:11.157Z,101983.16
2022-10-11T21:18:37.952Z,101986.31
2022-10-11T21:21:12.045Z,101985.34
2022-10-11T21:23:38.915Z,101990.34
2022-10-11T21:26:10.686Z,101985.78
2022-10-11T21:28:37.645Z,101985.59
2022-10-11T21:31:10.023Z,101995.72
2022-10-11T21:33:36.985Z,101986.09
2022-10-11T21:36:05.361Z,101996.25
2022-10-11T21:38:32.205Z,101991.06
2022-10-11T21:40:58.777Z,101992.69
2022-10-11T21:43:25.241Z,101992.59
2022-10-11T21:45:51.869Z,101992.59
2022-10-11T21:48:18.455Z,101985.53
2022-10-11T21:50:44.913Z,101992.25
2022-10-11T21:53:11.365Z,101988.78
2022-10-11T21:55:37.852Z,101989.59
2022-10-11T21:58:06.115Z,101995.56
2022-10-11T22:00:32.590Z,101999.75
2022-10-11T22:02:59.065Z,102002.25
2022-10-11T22:05:25.613Z,102003.94
2022-10-11T22:07:52.105Z,102007.31
2022-10-11T22:10:18.611Z,102001.06
2022-10-11T22:12:45.143Z,102003.44
2022-10-11T22:15:11.603Z,102009.31
2022-10-11T22:17:38.131Z,102019.47
2022-10-11T22:20:04.842Z,102018.38
2022-10-11T22:22:31.357Z,102012.09
2022-10-11T22:24:57.847Z,102017.06
2022-10-11T22:27:24.339Z,102019.56
2022-10-11T22:29:50.823Z,102016.88
2022-10-11T22:32:17.330Z,102020.16
2022-10-11T22:34:44.342Z,102014.91
2022-10-11T22:37:10.971Z,102016.50
2022-10-11T22:39:37.679Z,102014.66
2022-10-11T22:42:04.296Z,102006.72
2022-10-11T22:44:30.781Z,102016.06
2022-10-11T22:46:57.257Z,102009.91
2022-10-11T22:49:23.737Z,102005.34
2022-10-11T22:51:50.201Z,102006.91
2022-10-11T22:54:16.691Z,102011.06
2022-10-11T22:56:43.171Z,102004.91
2022-10-11T22:59:09.741Z,102010.78
2022-10-11T23:01:36.248Z,102007.22
2022-10-11T23:04:02.809Z,102016.56
2022-10-11T23:06:29.423Z,102015.56
2022-10-11T23:08:55.984Z,102004.31
2022-10-11T23:11:22.447Z,102012.84
2022-10-11T23:13:48.930Z,102007.47
2022-10-11T23:16:15.425Z,102013.34
2022-10-11T23:18:42.687Z,102011.47
2022-10-11T23:21:09.361Z,102006.00
2022-10-11T23:23:36.042Z,102011.81
2022-10-11T23:26:08.663Z,102005.66
2022-10-11T23:28:35.682Z,102008.06
2022-10-11T23:31:10.241Z,102008.06
2022-10-11T23:33:36.762Z,102009.53
2022-10-11T23:36:03.430Z,102016.16
2022-10-11T23:38:30.089Z,102009.22
2022-10-11T23:40:56.563Z,102009.91
2022-10-11T23:43:23.454Z,102010.59
2022-10-11T23:45:50.023Z,102014.75
2022-10-11T23:48:16.482Z,102023.31
2022-10-11T23:50:42.955Z,102012.09
2022-10-11T23:53:10.584Z,102013.66
2022-10-11T23:55:37.139Z,102023.88
2022-10-11T23:58:03.632Z,102021.97
